createdAt,value
2018-05-29T00:00:12.328Z,26.80
2018-05-29T00:00:46.120Z,26.90
2018-05-29T00:01:19.920Z,26.80
2018-05-29T00:01:52.954Z,26.80
2018-05-29T00:02:25.985Z,26.80
2018-05-29T00:02:59.013Z,26.90
2018-05-29T00:03:32.095Z,26.90
2018-05-29T00:04:05.135Z,26.80
2018-05-29T00:04:38.164Z,26.70
2018-05-29T00:05:11.184Z,26.70
2018-05-29T00:05:44.990Z,26.70
2018-05-29T00:06:18.773Z,26.70
2018-05-29T00:06:52.564Z,26.80
2018-05-29T00:07:26.400Z,26.80
2018-05-29T00:07:59.574Z,26.80
2018-05-29T00:08:32.594Z,26.80
2018-05-29T00:09:05.712Z,26.80
2018-05-29T00:09:38.756Z,26.70
2018-05-29T00:10:11.799Z,26.70
2018-05-29T00:10:44.841Z,26.70
2018-05-29T00:11:18.153Z,26.70
2018-05-29T00:11:51.186Z,26.70
2018-05-29T00:12:24.212Z,26.70
2018-05-29T00:12:57.252Z,26.70
2018-05-29T00:13:30.276Z,26.70
2018-05-29T00:14:04.085Z,26.70
2018-05-29T00:14:37.872Z,26.60
2018-05-29T00:15:11.665Z,26.60
2018-05-29T00:15:45.453Z,26.60
2018-05-29T00:16:19.256Z,26.60
2018-05-29T00:16:53.067Z,26.60
2018-05-29T00:17:26.100Z,26.60
2018-05-29T00:17:59.222Z,26.60
2018-05-29T00:18:32.252Z,26.60
2018-05-29T00:19:05.279Z,26.60
2018-05-29T00:19:38.306Z,26.60
2018-05-29T00:20:12.100Z,26.50
2018-05-29T00:20:45.909Z,26.60
2018-05-29T00:21:19.701Z,26.60
2018-05-29T00:21:53.527Z,26.50
2018-05-29T00:22:26.590Z,26.50
2018-05-29T00:22:59.612Z,26.60
2018-05-29T00:23:32.655Z,26.60
2018-05-29T00:24:05.693Z,26.60
2018-05-29T00:24:38.734Z,26.60
2018-05-29T00:25:11.780Z,26.50
2018-05-29T00:25:44.824Z,26.50
2018-05-29T00:26:17.844Z,26.50
2018-05-29T00:26:50.925Z,26.50
2018-05-29T00:27:23.933Z,26.50
2018-05-29T00:27:56.992Z,26.50
2018-05-29T00:28:30.036Z,26.40
2018-05-29T00:29:03.078Z,26.40
2018-05-29T00:29:36.089Z,26.40
2018-05-29T00:30:09.143Z,26.30
2018-05-29T00:30:42.152Z,26.30
2018-05-29T00:31:15.183Z,26.30
2018-05-29T00:31:48.212Z,26.40
2018-05-29T00:32:21.236Z,26.40
2018-05-29T00:32:54.289Z,26.30
2018-05-29T00:33:27.328Z,26.30
2018-05-29T00:34:00.348Z,26.30
2018-05-29T00:34:33.372Z,26.30
2018-05-29T00:35:06.400Z,26.30
2018-05-29T00:35:39.427Z,26.30
2018-05-29T00:36:12.468Z,26.30
2018-05-29T00:36:45.483Z,26.30
2018-05-29T00:37:18.513Z,26.30
2018-05-29T00:37:51.769Z,26.20
2018-05-29T00:38:24.796Z,26.30
2018-05-29T00:38:57.840Z,26.20
2018-05-29T00:39:30.864Z,26.20
2018-05-29T00:40:04.659Z,26.20
2018-05-29T00:40:38.452Z,26.20
2018-05-29T00:41:12.255Z,26.30
2018-05-29T00:41:46.059Z,26.20
2018-05-29T00:42:19.080Z,26.20
2018-05-29T00:42:52.141Z,26.20
2018-05-29T00:43:25.167Z,26.30
2018-05-29T00:43:58.956Z,26.20
2018-05-29T00:44:32.767Z,26.30
2018-05-29T00:45:05.804Z,26.20
2018-05-29T00:45:38.850Z,26.20
2018-05-29T00:46:11.888Z,26.20
2018-05-29T00:46:45.696Z,26.20
2018-05-29T00:47:18.726Z,26.10
2018-05-29T00:47:51.782Z,26.20
2018-05-29T00:48:24.821Z,26.10
2018-05-29T00:48:57.848Z,26.10
2018-05-29T00:49:30.868Z,26.20
2018-05-29T00:50:03.905Z,26.20
2018-05-29T00:50:37.708Z,26.10
2018-05-29T00:51:11.488Z,26.10
2018-05-29T00:51:45.280Z,26.20
2018-05-29T00:52:19.088Z,26.20
2018-05-29T00:52:52.917Z,26.20
2018-05-29T00:53:25.943Z,26.20
2018-05-29T00:53:58.996Z,26.20
2018-05-29T00:54:32.021Z,26.10
2018-05-29T00:55:17.025Z,26.10
2018-05-29T00:55:50.077Z,26.20
2018-05-29T00:56:23.100Z,26.20
2018-05-29T00:56:56.127Z,26.10
2018-05-29T00:57:29.154Z,26.10
2018-05-29T00:58:02.966Z,26.10
2018-05-29T00:58:35.989Z,26.10
2018-05-29T00:59:09.020Z,26.10
2018-05-29T00:59:42.105Z,26.10
2018-05-29T01:00:15.129Z,26.10
2018-05-29T01:00:48.161Z,26.00
2018-05-29T01:01:21.197Z,26.10
2018-05-29T01:01:54.991Z,26.00
2018-05-29T01:02:28.789Z,26.10
2018-05-29T01:03:01.840Z,26.00
2018-05-29T01:03:34.888Z,26.00
2018-05-29T01:04:07.951Z,26.00
2018-05-29T01:04:40.949Z,26.00
2018-05-29T01:05:13.981Z,25.90
2018-05-29T01:05:47.004Z,25.90
2018-05-29T01:06:20.042Z,25.90
2018-05-29T01:06:53.068Z,26.00
2018-05-29T01:07:26.889Z,26.00
2018-05-29T01:07:59.919Z,26.00
2018-05-29T01:08:32.974Z,26.00
2018-05-29T01:09:06.008Z,26.00
2018-05-29T01:09:39.029Z,26.00
2018-05-29T01:10:12.068Z,26.00
2018-05-29T01:10:45.092Z,26.00
2018-05-29T01:11:18.218Z,26.10
2018-05-29T01:11:51.248Z,26.10
2018-05-29T01:12:24.581Z,26.10
2018-05-29T01:12:57.612Z,26.10
2018-05-29T01:13:31.418Z,26.00
2018-05-29T01:14:05.218Z,26.10
2018-05-29T01:14:38.292Z,26.10
2018-05-29T01:15:11.316Z,26.00
2018-05-29T01:15:44.345Z,26.10
2018-05-29T01:16:17.380Z,26.10
2018-05-29T01:16:50.403Z,26.10
2018-05-29T01:17:23.437Z,26.10
2018-05-29T01:17:56.556Z,26.10
2018-05-29T01:18:29.608Z,26.10
2018-05-29T01:19:03.409Z,26.10
2018-05-29T01:19:36.451Z,26.10
2018-05-29T01:20:09.482Z,26.10
2018-05-29T01:20:42.680Z,26.10
2018-05-29T01:21:15.744Z,26.00
2018-05-29T01:21:49.005Z,26.00
2018-05-29T01:22:22.032Z,26.00
2018-05-29T01:22:55.057Z,26.00
2018-05-29T01:23:28.106Z,26.00
2018-05-29T01:24:01.907Z,26.00
2018-05-29T01:24:34.944Z,26.00
2018-05-29T01:25:07.988Z,25.90
2018-05-29T01:25:41.232Z,25.90
2018-05-29T01:26:15.025Z,25.90
2018-05-29T01:26:48.062Z,25.90
2018-05-29T01:27:21.085Z,26.00
2018-05-29T01:27:54.107Z,26.00
2018-05-29T01:28:27.149Z,25.90
2018-05-29T01:29:00.172Z,25.90
2018-05-29T01:29:33.202Z,25.90
2018-05-29T01:30:06.239Z,25.80
2018-05-29T01:30:40.051Z,25.90
2018-05-29T01:31:13.072Z,25.80
2018-05-29T01:31:46.112Z,25.80
2018-05-29T01:32:19.140Z,25.80
2018-05-29T01:32:52.951Z,25.90
2018-05-29T01:33:25.984Z,25.80
2018-05-29T01:33:59.034Z,25.90
2018-05-29T01:34:32.084Z,25.80
2018-05-29T01:35:05.884Z,25.80
2018-05-29T01:35:38.909Z,25.80
2018-05-29T01:36:11.941Z,25.80
2018-05-29T01:36:45.028Z,25.80
2018-05-29T01:37:18.061Z,25.70
2018-05-29T01:37:51.867Z,25.70
2018-05-29T01:38:24.915Z,25.70
2018-05-29T01:38:59.058Z,25.70
2018-05-29T01:39:32.097Z,25.70
2018-05-29T01:40:05.141Z,25.70
2018-05-29T01:40:38.165Z,25.70
2018-05-29T01:41:11.196Z,25.70
2018-05-29T01:41:44.268Z,25.70
2018-05-29T01:42:17.297Z,25.70
2018-05-29T01:42:50.392Z,25.70
2018-05-29T01:43:23.556Z,25.60
2018-05-29T01:43:56.765Z,25.60
2018-05-29T01:44:29.803Z,25.60
2018-05-29T01:45:02.830Z,25.60
2018-05-29T01:45:35.863Z,25.60
2018-05-29T01:46:08.888Z,25.60
2018-05-29T01:46:41.920Z,25.60
2018-05-29T01:47:15.000Z,25.60
2018-05-29T01:47:48.021Z,25.60
2018-05-29T01:48:21.169Z,25.60
2018-05-29T01:48:54.197Z,25.60
2018-05-29T01:49:27.289Z,25.50
2018-05-29T01:50:00.304Z,25.50
2018-05-29T01:50:33.337Z,25.50
2018-05-29T01:51:06.352Z,25.50
2018-05-29T01:51:39.387Z,25.50
2018-05-29T01:52:12.417Z,25.50
2018-05-29T01:52:45.449Z,25.50
2018-05-29T01:53:18.472Z,25.50
2018-05-29T01:53:52.280Z,25.40
2018-05-29T01:54:25.317Z,25.40
2018-05-29T01:54:58.344Z,25.40
2018-05-29T01:55:31.404Z,25.40
2018-05-29T01:56:05.197Z,25.40
2018-05-29T01:56:38.220Z,25.40
2018-05-29T01:57:11.378Z,25.40
2018-05-29T01:57:44.400Z,25.40
2018-05-29T01:58:17.429Z,25.40
2018-05-29T01:58:50.477Z,25.40
2018-05-29T01:59:23.503Z,25.40
2018-05-29T01:59:56.528Z,25.40
2018-05-29T02:00:29.564Z,25.40
2018-05-29T02:01:02.602Z,25.40
2018-05-29T02:01:35.627Z,25.40
2018-05-29T02:02:09.422Z,25.40
2018-05-29T02:02:42.457Z,25.30
2018-05-29T02:03:15.485Z,25.30
2018-05-29T02:03:49.309Z,25.30
2018-05-29T02:04:23.162Z,25.30
2018-05-29T02:04:56.280Z,25.30
2018-05-29T02:05:29.465Z,25.30
2018-05-29T02:06:02.504Z,25.20
2018-05-29T02:06:35.537Z,25.20
2018-05-29T02:07:08.558Z,25.20
2018-05-29T02:07:41.593Z,25.20
2018-05-29T02:08:14.624Z,25.20
2018-05-29T02:08:47.648Z,25.20
2018-05-29T02:09:20.688Z,25.20
2018-05-29T02:09:53.732Z,25.20
2018-05-29T02:10:26.746Z,25.20
2018-05-29T02:10:59.775Z,25.20
2018-05-29T02:11:32.805Z,25.20
2018-05-29T02:12:05.828Z,25.20
2018-05-29T02:12:38.849Z,25.20
2018-05-29T02:13:11.898Z,25.20
2018-05-29T02:13:45.085Z,25.20
2018-05-29T02:14:18.116Z,25.20
2018-05-29T02:14:51.160Z,25.10
2018-05-29T02:15:24.189Z,25.10
2018-05-29T02:15:57.216Z,25.20
2018-05-29T02:16:30.249Z,25.10
2018-05-29T02:17:03.289Z,25.10
2018-05-29T02:17:37.080Z,25.10
2018-05-29T02:18:10.109Z,25.10
2018-05-29T02:18:43.144Z,25.10
2018-05-29T02:19:16.174Z,25.10
2018-05-29T02:19:49.233Z,25.10
2018-05-29T02:20:22.390Z,25.10
2018-05-29T02:20:55.413Z,25.10
2018-05-29T02:21:28.541Z,25.10
2018-05-29T02:22:01.565Z,25.10
2018-05-29T02:22:34.620Z,25.00
2018-05-29T02:23:07.648Z,25.00
2018-05-29T02:23:40.965Z,25.00
2018-05-29T02:24:14.009Z,25.10
2018-05-29T02:24:47.044Z,25.00
2018-05-29T02:25:20.152Z,25.00
2018-05-29T02:25:53.188Z,25.00
2018-05-29T02:26:26.220Z,25.00
2018-05-29T02:26:59.252Z,25.00
2018-05-29T02:27:33.056Z,25.00
2018-05-29T02:28:06.844Z,25.00
2018-05-29T02:28:40.637Z,25.00
2018-05-29T02:29:14.449Z,25.00
2018-05-29T02:29:47.465Z,25.00
2018-05-29T02:30:20.615Z,25.00
2018-05-29T02:30:53.648Z,25.00
2018-05-29T02:31:27.432Z,25.00
2018-05-29T02:32:00.456Z,25.00
2018-05-29T02:32:33.484Z,25.00
2018-05-29T02:33:07.269Z,24.90
2018-05-29T02:33:41.064Z,25.00
2018-05-29T02:34:14.875Z,24.90
2018-05-29T02:34:48.661Z,24.90
2018-05-29T02:35:22.452Z,24.90
2018-05-29T02:35:56.287Z,24.90
2018-05-29T02:36:29.450Z,24.90
2018-05-29T02:37:02.495Z,24.80
2018-05-29T02:37:36.295Z,24.80
2018-05-29T02:38:09.341Z,24.80
2018-05-29T02:38:42.380Z,24.80
2018-05-29T02:39:15.567Z,24.80
2018-05-29T02:39:48.581Z,24.80
2018-05-29T02:40:21.609Z,24.70
2018-05-29T02:40:54.668Z,24.80
2018-05-29T02:41:27.715Z,24.70
2018-05-29T02:42:00.747Z,24.80
2018-05-29T02:42:33.769Z,24.80
2018-05-29T02:43:06.983Z,24.80
2018-05-29T02:43:40.012Z,24.80
2018-05-29T02:44:13.040Z,24.70
2018-05-29T02:44:46.069Z,24.70
2018-05-29T02:45:19.852Z,24.70
2018-05-29T02:45:53.645Z,24.70
2018-05-29T02:46:27.456Z,24.70
2018-05-29T02:47:01.252Z,24.80
2018-05-29T02:47:34.463Z,24.70
2018-05-29T02:48:07.501Z,24.80
2018-05-29T02:48:40.537Z,24.70
2018-05-29T02:49:13.580Z,24.70
2018-05-29T02:49:46.622Z,24.70
2018-05-29T02:50:20.408Z,24.70
2018-05-29T02:50:53.437Z,24.70
2018-05-29T02:51:27.229Z,24.70
2018-05-29T02:52:00.268Z,24.70
2018-05-29T02:52:33.293Z,24.60
2018-05-29T02:53:06.326Z,24.60
2018-05-29T02:53:39.399Z,24.60
2018-05-29T02:54:12.569Z,24.60
2018-05-29T02:54:45.616Z,24.60
2018-05-29T02:55:19.413Z,24.60
2018-05-29T02:55:52.436Z,24.60
2018-05-29T02:56:25.504Z,24.60
2018-05-29T02:56:58.531Z,24.60
2018-05-29T02:57:31.555Z,24.60
2018-05-29T02:58:04.567Z,24.60
2018-05-29T02:58:37.590Z,24.60
2018-05-29T02:59:10.616Z,24.60
2018-05-29T02:59:43.670Z,24.50
2018-05-29T03:00:16.698Z,24.60
2018-05-29T03:00:49.801Z,24.50
2018-05-29T03:01:22.840Z,24.50
2018-05-29T03:01:56.629Z,24.50
2018-05-29T03:02:30.437Z,24.50
2018-05-29T03:03:03.476Z,24.50
2018-05-29T03:03:36.612Z,24.50
2018-05-29T03:04:09.636Z,24.50
2018-05-29T03:04:42.762Z,24.50
2018-05-29T03:05:15.795Z,24.50
2018-05-29T03:05:48.821Z,24.50
2018-05-29T03:06:21.857Z,24.50
2018-05-29T03:06:55.653Z,24.40
2018-05-29T03:07:28.685Z,24.40
2018-05-29T03:08:01.789Z,24.40
2018-05-29T03:08:34.755Z,24.40
2018-05-29T03:09:08.554Z,24.40
2018-05-29T03:09:42.398Z,24.40
2018-05-29T03:10:15.412Z,24.40
2018-05-29T03:10:48.441Z,24.40
2018-05-29T03:11:21.465Z,24.40
2018-05-29T03:11:55.252Z,24.40
2018-05-29T03:12:29.042Z,24.40
2018-05-29T03:13:02.068Z,24.30
2018-05-29T03:13:35.091Z,24.40
2018-05-29T03:14:08.892Z,24.30
2018-05-29T03:14:41.932Z,24.30
2018-05-29T03:15:15.733Z,24.30
2018-05-29T03:15:48.777Z,24.30
2018-05-29T03:16:21.812Z,24.30
2018-05-29T03:16:54.928Z,24.30
2018-05-29T03:17:27.948Z,24.30
2018-05-29T03:18:00.996Z,24.30
2018-05-29T03:18:34.023Z,24.30
2018-05-29T03:19:07.060Z,24.30
2018-05-29T03:19:40.109Z,24.30
2018-05-29T03:20:13.140Z,24.20
2018-05-29T03:20:46.943Z,24.20
2018-05-29T03:21:19.979Z,24.20
2018-05-29T03:21:53.002Z,24.20
2018-05-29T03:22:26.036Z,24.20
2018-05-29T03:22:59.064Z,24.20
2018-05-29T03:23:32.093Z,24.20
2018-05-29T03:24:05.113Z,24.10
2018-05-29T03:24:38.145Z,24.10
2018-05-29T03:25:11.957Z,24.20
2018-05-29T03:25:44.993Z,24.20
2018-05-29T03:26:18.026Z,24.20
2018-05-29T03:26:51.064Z,24.10
2018-05-29T03:27:24.848Z,24.10
2018-05-29T03:27:58.648Z,24.10
2018-05-29T03:28:32.441Z,24.10
2018-05-29T03:29:06.317Z,24.10
2018-05-29T03:29:39.356Z,24.10
2018-05-29T03:30:12.433Z,24.00
2018-05-29T03:30:45.484Z,24.00
2018-05-29T03:31:18.536Z,24.10
2018-05-29T03:31:52.321Z,24.00
2018-05-29T03:32:26.108Z,24.00
2018-05-29T03:32:59.894Z,24.00
2018-05-29T03:33:32.941Z,24.00
2018-05-29T03:34:05.981Z,24.00
2018-05-29T03:34:39.001Z,24.00
2018-05-29T03:35:12.025Z,24.00
2018-05-29T03:35:45.824Z,24.00
2018-05-29T03:36:19.005Z,24.00
2018-05-29T03:36:52.185Z,24.00
2018-05-29T03:37:25.211Z,24.00
2018-05-29T03:37:58.246Z,24.00
2018-05-29T03:38:31.512Z,24.00
2018-05-29T03:39:04.575Z,24.00
2018-05-29T03:39:38.350Z,24.00
2018-05-29T03:40:11.405Z,24.00
2018-05-29T03:40:44.473Z,24.00
2018-05-29T03:41:17.517Z,24.00
2018-05-29T03:41:50.540Z,24.00
2018-05-29T03:42:24.342Z,24.00
2018-05-29T03:42:58.125Z,24.00
2018-05-29T03:43:31.155Z,24.00
2018-05-29T03:44:04.196Z,24.00
2018-05-29T03:44:37.259Z,23.90
2018-05-29T03:45:10.290Z,24.00
2018-05-29T03:45:43.343Z,24.00
2018-05-29T03:46:16.364Z,24.00
2018-05-29T03:46:49.400Z,24.00
2018-05-29T03:47:22.432Z,24.00
2018-05-29T03:47:55.465Z,24.00
2018-05-29T03:48:29.264Z,24.00
2018-05-29T03:49:02.290Z,24.00
2018-05-29T03:49:36.093Z,24.00
2018-05-29T03:50:09.133Z,24.00
2018-05-29T03:50:42.166Z,24.10
2018-05-29T03:51:15.203Z,24.10
2018-05-29T03:51:49.024Z,24.10
2018-05-29T03:52:22.057Z,24.10
2018-05-29T03:52:55.173Z,24.10
2018-05-29T03:53:28.213Z,24.10
2018-05-29T03:54:01.341Z,24.20
2018-05-29T03:54:34.384Z,24.10
2018-05-29T03:55:07.416Z,24.20
2018-05-29T03:55:40.461Z,24.20
2018-05-29T03:56:13.492Z,24.20
2018-05-29T03:56:46.535Z,24.20
2018-05-29T03:57:19.581Z,24.20
2018-05-29T03:57:52.602Z,24.20
2018-05-29T03:58:25.637Z,24.20
2018-05-29T03:58:58.684Z,24.20
2018-05-29T03:59:31.722Z,24.20
2018-05-29T04:00:04.752Z,24.30
2018-05-29T04:00:38.581Z,24.30
2018-05-29T04:01:11.629Z,24.30
2018-05-29T04:01:44.661Z,24.30
2018-05-29T04:02:17.704Z,24.30
2018-05-29T04:02:50.774Z,24.30
2018-05-29T04:03:24.021Z,24.30
2018-05-29T04:03:57.390Z,24.30
2018-05-29T04:04:30.425Z,24.30
2018-05-29T04:05:04.238Z,24.40
2018-05-29T04:05:37.296Z,24.30
2018-05-29T04:06:11.095Z,24.40
2018-05-29T04:06:44.135Z,24.40
2018-05-29T04:07:17.177Z,24.40
2018-05-29T04:07:50.208Z,24.40
2018-05-29T04:08:24.029Z,24.40
2018-05-29T04:08:57.063Z,24.40
2018-05-29T04:09:30.111Z,24.40
2018-05-29T04:10:03.171Z,24.50
2018-05-29T04:10:36.209Z,24.50
2018-05-29T04:11:10.033Z,24.50
2018-05-29T04:11:43.084Z,24.50
2018-05-29T04:12:16.124Z,24.50
2018-05-29T04:12:49.167Z,24.50
2018-05-29T04:13:22.205Z,24.50
2018-05-29T04:13:55.430Z,24.50
2018-05-29T04:14:28.480Z,24.60
2018-05-29T04:15:01.532Z,24.50
2018-05-29T04:15:34.591Z,24.60
2018-05-29T04:16:07.912Z,24.60
2018-05-29T04:16:40.961Z,24.60
2018-05-29T04:17:14.756Z,24.60
2018-05-29T04:17:48.579Z,24.60
2018-05-29T04:18:21.622Z,24.60
2018-05-29T04:18:54.664Z,24.70
2018-05-29T04:19:27.719Z,24.60
2018-05-29T04:20:00.757Z,24.70
2018-05-29T04:20:33.801Z,24.70
2018-05-29T04:21:06.836Z,24.70
2018-05-29T04:21:39.879Z,24.70
2018-05-29T04:22:12.995Z,24.70
2018-05-29T04:22:46.065Z,24.70
2018-05-29T04:23:19.106Z,24.70
2018-05-29T04:23:52.156Z,24.70
2018-05-29T04:24:25.237Z,24.80
2018-05-29T04:24:58.250Z,24.80
2018-05-29T04:25:32.083Z,24.80
2018-05-29T04:26:05.152Z,24.80
2018-05-29T04:26:38.204Z,24.80
2018-05-29T04:27:11.265Z,24.80
2018-05-29T04:27:44.301Z,24.90
2018-05-29T04:28:17.361Z,24.90
2018-05-29T04:28:50.399Z,24.90
2018-05-29T04:29:23.428Z,24.90
2018-05-29T04:29:57.242Z,24.90
2018-05-29T04:30:30.280Z,24.90
2018-05-29T04:31:03.342Z,25.00
2018-05-29T04:31:36.372Z,25.00
2018-05-29T04:32:09.585Z,25.00
2018-05-29T04:32:42.607Z,25.00
2018-05-29T04:33:15.649Z,25.00
2018-05-29T04:33:48.690Z,25.00
2018-05-29T04:34:21.729Z,25.00
2018-05-29T04:34:54.755Z,25.00
2018-05-29T04:35:28.037Z,25.00
2018-05-29T04:36:01.108Z,25.00
2018-05-29T04:36:34.136Z,25.00
2018-05-29T04:37:07.941Z,25.00
2018-05-29T04:37:40.991Z,25.00
2018-05-29T04:38:14.018Z,25.00
2018-05-29T04:38:47.082Z,25.00
2018-05-29T04:39:20.118Z,25.00
2018-05-29T04:39:53.924Z,25.00
2018-05-29T04:40:26.971Z,25.00
2018-05-29T04:41:00.012Z,25.10
2018-05-29T04:41:33.053Z,25.00
2018-05-29T04:42:06.097Z,25.10
2018-05-29T04:42:39.141Z,25.10
2018-05-29T04:43:12.169Z,25.10
2018-05-29T04:43:46.018Z,25.10
2018-05-29T04:44:19.017Z,25.10
2018-05-29T04:44:52.056Z,25.10
2018-05-29T04:45:25.084Z,25.10
2018-05-29T04:45:58.911Z,25.20
2018-05-29T04:46:31.941Z,25.20
2018-05-29T04:47:05.776Z,25.20
2018-05-29T04:47:39.560Z,25.20
2018-05-29T04:48:12.584Z,25.20
2018-05-29T04:48:45.632Z,25.20
2018-05-29T04:49:18.668Z,25.20
2018-05-29T04:49:51.708Z,25.20
2018-05-29T04:50:24.732Z,25.20
2018-05-29T04:50:57.793Z,25.20
2018-05-29T04:51:31.624Z,25.30
2018-05-29T04:52:04.661Z,25.30
2018-05-29T04:52:37.702Z,25.30
2018-05-29T04:53:10.736Z,25.30
2018-05-29T04:53:43.761Z,25.30
2018-05-29T04:54:17.577Z,25.40
2018-05-29T04:54:50.631Z,25.30
2018-05-29T04:55:23.668Z,25.40
2018-05-29T04:55:56.708Z,25.40
2018-05-29T04:56:29.778Z,25.30
2018-05-29T04:57:03.581Z,25.30
2018-05-29T04:57:36.620Z,25.30
2018-05-29T04:58:09.674Z,25.30
2018-05-29T04:58:42.688Z,25.40
2018-05-29T04:59:15.725Z,25.40
2018-05-29T04:59:48.764Z,25.40
2018-05-29T05:00:21.796Z,25.40
2018-05-29T05:00:55.598Z,25.40
2018-05-29T05:01:29.416Z,25.50
2018-05-29T05:02:02.449Z,25.50
2018-05-29T05:02:35.637Z,25.50
2018-05-29T05:03:08.616Z,25.50
2018-05-29T05:03:41.649Z,25.60
2018-05-29T05:04:14.682Z,25.60
2018-05-29T05:04:48.502Z,25.60
2018-05-29T05:05:21.545Z,25.60
2018-05-29T05:05:54.594Z,25.60
2018-05-29T05:06:27.644Z,25.60
2018-05-29T05:07:00.719Z,25.60
2018-05-29T05:07:33.726Z,25.70
2018-05-29T05:08:07.533Z,25.70
2018-05-29T05:08:40.572Z,25.70
2018-05-29T05:09:13.616Z,25.70
2018-05-29T05:09:46.657Z,25.70
2018-05-29T05:10:19.695Z,25.80
2018-05-29T05:10:52.732Z,25.80
2018-05-29T05:11:25.791Z,25.80
2018-05-29T05:11:58.841Z,25.80
2018-05-29T05:12:31.967Z,25.90
2018-05-29T05:13:05.010Z,25.90
2018-05-29T05:13:38.036Z,25.90
2018-05-29T05:14:11.077Z,26.00
2018-05-29T05:14:44.120Z,26.00
2018-05-29T05:15:17.241Z,26.10
2018-05-29T05:15:50.272Z,26.10
2018-05-29T05:16:24.091Z,26.20
2018-05-29T05:16:57.124Z,26.20
2018-05-29T05:17:30.148Z,26.20
2018-05-29T05:18:03.203Z,26.20
2018-05-29T05:18:36.309Z,26.20
2018-05-29T05:19:09.343Z,26.20
2018-05-29T05:19:42.369Z,26.20
2018-05-29T05:20:15.457Z,26.20
2018-05-29T05:20:48.464Z,26.20
2018-05-29T05:21:21.536Z,26.20
2018-05-29T05:21:55.351Z,26.30
2018-05-29T05:22:28.391Z,26.30
2018-05-29T05:23:01.444Z,26.20
2018-05-29T05:23:34.527Z,26.30
2018-05-29T05:24:07.575Z,26.30
2018-05-29T05:24:40.649Z,26.30
2018-05-29T05:25:13.692Z,26.30
2018-05-29T05:25:46.730Z,26.30
2018-05-29T05:26:19.785Z,26.30
2018-05-29T05:26:52.817Z,26.40
2018-05-29T05:27:25.848Z,26.40
2018-05-29T05:27:58.896Z,26.40
2018-05-29T05:28:31.936Z,26.40
2018-05-29T05:29:04.976Z,26.40
2018-05-29T05:29:38.017Z,26.40
2018-05-29T05:30:11.044Z,26.40
2018-05-29T05:30:44.087Z,26.40
2018-05-29T05:31:17.130Z,26.50
2018-05-29T05:31:50.188Z,26.50
2018-05-29T05:32:23.224Z,26.50
2018-05-29T05:32:56.269Z,26.50
2018-05-29T05:33:29.318Z,26.50
2018-05-29T05:34:02.352Z,26.50
2018-05-29T05:34:35.400Z,26.60
2018-05-29T05:35:08.440Z,26.50
2018-05-29T05:35:41.493Z,26.50
2018-05-29T05:36:15.288Z,26.60
2018-05-29T05:36:49.145Z,26.60
2018-05-29T05:37:22.165Z,26.60
2018-05-29T05:37:55.204Z,26.60
2018-05-29T05:38:28.257Z,26.60
2018-05-29T05:39:01.294Z,26.60
2018-05-29T05:39:34.325Z,26.60
2018-05-29T05:40:07.368Z,26.60
2018-05-29T05:40:40.417Z,26.60
2018-05-29T05:41:13.448Z,26.60
2018-05-29T05:41:46.501Z,26.60
2018-05-29T05:42:19.730Z,26.60
2018-05-29T05:42:52.764Z,26.70
2018-05-29T05:43:25.793Z,26.60
2018-05-29T05:43:59.605Z,26.60
2018-05-29T05:44:32.640Z,26.60
2018-05-29T05:45:05.689Z,26.60
2018-05-29T05:45:38.724Z,26.60
2018-05-29T05:46:11.759Z,26.60
2018-05-29T05:46:44.825Z,26.60
2018-05-29T05:47:17.869Z,26.70
2018-05-29T05:47:50.898Z,26.70
2018-05-29T05:48:24.733Z,26.70
2018-05-29T05:48:57.757Z,26.70
2018-05-29T05:49:31.582Z,26.70
2018-05-29T05:50:04.607Z,26.70
2018-05-29T05:50:37.648Z,26.70
2018-05-29T05:51:10.729Z,26.80
2018-05-29T05:51:43.776Z,26.80
2018-05-29T05:52:16.816Z,26.70
2018-05-29T05:52:49.920Z,26.70
2018-05-29T05:53:22.912Z,26.80
2018-05-29T05:53:55.941Z,26.80
2018-05-29T05:54:28.964Z,26.80
2018-05-29T05:55:02.027Z,26.80
2018-05-29T05:55:35.059Z,26.70
2018-05-29T05:56:08.105Z,26.80
2018-05-29T05:56:41.157Z,26.80
2018-05-29T05:57:14.220Z,26.80
2018-05-29T05:57:47.251Z,26.90
2018-05-29T05:58:20.288Z,26.90
2018-05-29T05:58:53.324Z,26.90
2018-05-29T05:59:27.129Z,26.90
2018-05-29T06:00:00.952Z,26.90
2018-05-29T06:00:34.013Z,26.90
2018-05-29T06:01:07.053Z,27.00
2018-05-29T06:01:40.101Z,27.00
2018-05-29T06:02:13.137Z,27.00
2018-05-29T06:02:46.183Z,27.00
2018-05-29T06:03:19.213Z,27.00
2018-05-29T06:03:52.240Z,27.00
2018-05-29T06:04:26.045Z,27.10
2018-05-29T06:04:59.072Z,27.10
2018-05-29T06:05:32.112Z,27.10
2018-05-29T06:06:05.153Z,27.10
2018-05-29T06:06:38.192Z,27.10
2018-05-29T06:07:12.025Z,26.90
2018-05-29T06:07:45.846Z,26.90
2018-05-29T06:08:18.877Z,26.90
2018-05-29T06:08:51.909Z,26.90
2018-05-29T06:09:24.940Z,26.90
2018-05-29T06:09:58.780Z,26.90
2018-05-29T06:10:31.817Z,26.90
2018-05-29T06:11:04.847Z,26.90
2018-05-29T06:11:37.932Z,26.90
2018-05-29T06:12:11.004Z,26.90
2018-05-29T06:12:44.056Z,26.90
2018-05-29T06:13:17.153Z,26.90
2018-05-29T06:13:50.254Z,27.00
2018-05-29T06:14:24.068Z,26.90
2018-05-29T06:14:57.088Z,26.90
2018-05-29T06:15:30.120Z,26.90
2018-05-29T06:16:03.195Z,26.90
2018-05-29T06:16:36.983Z,26.90
2018-05-29T06:17:10.020Z,26.90
2018-05-29T06:17:43.061Z,26.90
2018-05-29T06:18:16.096Z,26.90
2018-05-29T06:18:49.929Z,26.90
2018-05-29T06:19:22.980Z,26.90
2018-05-29T06:19:56.017Z,26.90
2018-05-29T06:20:29.041Z,27.00
2018-05-29T06:21:02.124Z,27.00
2018-05-29T06:21:35.169Z,27.00
2018-05-29T06:22:08.216Z,27.00
2018-05-29T06:22:41.253Z,27.00
2018-05-29T06:23:14.287Z,27.10
2018-05-29T06:23:47.332Z,27.10
2018-05-29T06:24:21.161Z,27.10
2018-05-29T06:24:54.181Z,27.10
2018-05-29T06:25:27.217Z,27.20
2018-05-29T06:26:00.252Z,27.20
2018-05-29T06:26:33.300Z,27.20
2018-05-29T06:27:06.365Z,27.20
2018-05-29T06:27:39.396Z,27.20
2018-05-29T06:28:13.212Z,27.30
2018-05-29T06:28:46.251Z,27.20
2018-05-29T06:29:19.282Z,27.30
2018-05-29T06:29:52.335Z,27.30
2018-05-29T06:30:25.380Z,27.30
2018-05-29T06:30:58.414Z,27.30
2018-05-29T06:31:31.449Z,27.30
2018-05-29T06:32:04.494Z,27.30
2018-05-29T06:32:37.536Z,27.30
2018-05-29T06:33:10.581Z,27.30
2018-05-29T06:33:43.608Z,27.30
2018-05-29T06:34:16.757Z,27.30
2018-05-29T06:34:49.785Z,27.40
2018-05-29T06:35:22.829Z,27.40
2018-05-29T06:35:55.879Z,27.40
2018-05-29T06:36:28.908Z,27.40
2018-05-29T06:37:01.970Z,27.40
2018-05-29T06:37:35.019Z,27.50
2018-05-29T06:38:08.091Z,27.50
2018-05-29T06:38:41.112Z,27.40
2018-05-29T06:39:14.918Z,27.40
2018-05-29T06:39:47.992Z,27.50
2018-05-29T06:40:21.031Z,27.40
2018-05-29T06:40:54.070Z,27.50
2018-05-29T06:41:27.113Z,27.50
2018-05-29T06:42:00.148Z,27.60
2018-05-29T06:42:33.208Z,27.60
2018-05-29T06:43:06.363Z,27.60
2018-05-29T06:43:39.416Z,27.60
2018-05-29T06:44:12.530Z,27.70
2018-05-29T06:44:45.560Z,27.60
2018-05-29T06:45:18.605Z,27.70
2018-05-29T06:45:51.641Z,27.70
2018-05-29T06:46:24.830Z,27.80
2018-05-29T06:46:57.864Z,27.80
2018-05-29T06:47:31.689Z,27.90
2018-05-29T06:48:04.722Z,27.80
2018-05-29T06:48:38.519Z,27.90
2018-05-29T06:49:12.320Z,27.90
2018-05-29T06:49:46.118Z,27.90
2018-05-29T06:50:19.169Z,27.90
2018-05-29T06:50:52.184Z,27.90
2018-05-29T06:51:25.232Z,27.90
2018-05-29T06:51:59.036Z,28.00
2018-05-29T06:52:32.152Z,28.00
2018-05-29T06:53:05.913Z,28.10
2018-05-29T06:53:38.949Z,28.10
2018-05-29T06:54:11.988Z,28.20
2018-05-29T06:54:45.024Z,28.20
2018-05-29T06:55:18.055Z,28.30
2018-05-29T06:55:51.092Z,28.40
2018-05-29T06:56:24.114Z,28.40
2018-05-29T06:56:57.153Z,28.40
2018-05-29T06:57:30.226Z,28.40
2018-05-29T06:58:03.288Z,28.40
2018-05-29T06:58:36.363Z,28.40
2018-05-29T06:59:09.392Z,28.50
2018-05-29T06:59:42.425Z,28.50
2018-05-29T07:00:15.505Z,28.50
2018-05-29T07:00:48.535Z,28.60
2018-05-29T07:01:22.325Z,28.60
2018-05-29T07:01:55.360Z,28.60
2018-05-29T07:02:28.390Z,28.60
2018-05-29T07:03:01.416Z,28.70
2018-05-29T07:03:34.555Z,28.60
2018-05-29T07:04:07.500Z,28.70
2018-05-29T07:04:41.305Z,28.70
2018-05-29T07:05:15.116Z,28.70
2018-05-29T07:05:48.149Z,28.70
2018-05-29T07:06:21.209Z,28.70
2018-05-29T07:06:54.264Z,28.80
2018-05-29T07:07:27.303Z,28.80